createdAt,value
2023-04-27T00:01:16.671Z,4.70
2023-04-27T00:03:46.003Z,9.02
2023-04-27T00:06:12.997Z,6.03
2023-04-27T00:08:39.700Z,5.88
2023-04-27T00:11:06.709Z,7.53
2023-04-27T00:13:33.450Z,6.15
2023-04-27T00:16:03.675Z,3.70
2023-04-27T00:18:31.276Z,6.03
2023-04-27T00:20:58.668Z,6.05
2023-04-27T00:23:26.330Z,5.85
2023-04-27T00:25:53.002Z,5.90
2023-04-27T00:28:19.766Z,5.85
2023-04-27T00:30:46.655Z,8.77
2023-04-27T00:33:13.428Z,8.02
2023-04-27T00:35:40.077Z,5.55
2023-04-27T00:38:06.737Z,5.50
2023-04-27T00:40:33.353Z,4.97
2023-04-27T00:43:00.019Z,7.10
2023-04-27T00:45:26.663Z,6.82
2023-04-27T00:47:53.639Z,6.75
2023-04-27T00:50:29.550Z,6.00
2023-04-27T00:52:56.842Z,8.02
2023-04-27T00:55:24.549Z,4.93
2023-04-27T00:57:51.900Z,6.63
2023-04-27T01:00:18.712Z,5.22
2023-04-27T01:02:46.196Z,5.97
2023-04-27T01:05:13.528Z,7.35
2023-04-27T01:07:41.062Z,6.00
2023-04-27T01:10:08.517Z,6.10
2023-04-27T01:12:35.224Z,8.18
2023-04-27T01:15:01.956Z,4.90
2023-04-27T01:17:28.676Z,5.00
2023-04-27T01:19:56.867Z,5.00
2023-04-27T01:22:23.576Z,5.35
2023-04-27T01:24:50.241Z,5.60
2023-04-27T01:27:16.925Z,5.07
2023-04-27T01:29:44.641Z,5.95
2023-04-27T01:32:12.557Z,5.80
2023-04-27T01:34:39.303Z,6.50
2023-04-27T01:37:06.078Z,5.25
2023-04-27T01:39:32.927Z,6.18
2023-04-27T01:41:59.624Z,7.82
2023-04-27T01:44:26.423Z,5.28
2023-04-27T01:46:53.141Z,6.25
2023-04-27T01:49:19.908Z,6.22
2023-04-27T01:51:46.741Z,5.95
2023-04-27T01:54:13.441Z,5.00
2023-04-27T01:56:40.180Z,5.28
2023-04-27T01:59:06.932Z,4.90
2023-04-27T02:01:33.665Z,5.00
2023-04-27T02:04:00.571Z,5.75
2023-04-27T02:06:27.863Z,4.65
2023-04-27T02:08:54.511Z,6.47
2023-04-27T02:11:21.736Z,5.05
2023-04-27T02:13:48.958Z,5.80
2023-04-27T02:16:15.784Z,4.22
2023-04-27T02:18:42.917Z,5.35
2023-04-27T02:21:10.912Z,4.47
2023-04-27T02:23:37.892Z,6.45
2023-04-27T02:26:04.696Z,5.22
2023-04-27T02:28:32.352Z,6.57
2023-04-27T02:30:59.444Z,6.25
2023-04-27T02:33:26.109Z,6.15
2023-04-27T02:35:52.786Z,5.47
2023-04-27T02:38:19.441Z,5.50
2023-04-27T02:40:46.129Z,5.53
2023-04-27T02:43:12.776Z,5.13
2023-04-27T02:45:39.441Z,5.30
2023-04-27T02:48:06.510Z,5.38
2023-04-27T02:50:33.157Z,5.93
2023-04-27T02:52:59.911Z,7.15
2023-04-27T02:55:27.715Z,4.97
2023-04-27T02:57:54.382Z,7.20
2023-04-27T03:00:21.116Z,5.63
2023-04-27T03:02:47.901Z,6.75
2023-04-27T03:05:14.727Z,5.78
2023-04-27T03:07:41.410Z,4.75
2023-04-27T03:10:08.459Z,4.60
2023-04-27T03:12:35.286Z,6.03
2023-04-27T03:15:02.073Z,7.18
2023-04-27T03:17:29.047Z,6.70
2023-04-27T03:19:55.798Z,7.40
2023-04-27T03:22:22.467Z,5.75
2023-04-27T03:24:49.227Z,4.25
2023-04-27T03:27:15.889Z,5.45
2023-04-27T03:29:42.535Z,4.75
2023-04-27T03:32:09.254Z,7.25
2023-04-27T03:34:36.948Z,4.15
2023-04-27T03:37:03.655Z,5.60
2023-04-27T03:39:30.385Z,5.18
2023-04-27T03:41:57.681Z,6.53
2023-04-27T03:44:24.499Z,5.20
2023-04-27T03:46:51.458Z,4.90
2023-04-27T03:49:18.087Z,4.63
2023-04-27T03:51:44.745Z,6.25
2023-04-27T03:54:11.656Z,4.32
2023-04-27T03:56:38.320Z,4.80
2023-04-27T03:59:05.339Z,4.10
2023-04-27T04:01:32.236Z,4.07
2023-04-27T04:03:59.116Z,7.50
2023-04-27T04:06:26.232Z,4.38
2023-04-27T04:08:52.904Z,6.07
2023-04-27T04:11:19.557Z,5.05
2023-04-27T04:13:47.466Z,4.93
2023-04-27T04:16:14.204Z,7.05
2023-04-27T04:18:41.009Z,4.68
2023-04-27T04:21:10.144Z,4.00
2023-04-27T04:23:37.730Z,5.68
2023-04-27T04:26:05.679Z,4.72
2023-04-27T04:28:32.471Z,7.25
2023-04-27T04:31:01.228Z,4.68
2023-04-27T04:33:28.369Z,6.90
2023-04-27T04:35:55.054Z,6.20
2023-04-27T04:38:21.774Z,5.22
2023-04-27T04:40:48.638Z,6.20
2023-04-27T04:43:15.443Z,7.13
2023-04-27T04:45:42.846Z,5.80
2023-04-27T04:48:10.420Z,7.20
2023-04-27T04:50:37.173Z,5.28
2023-04-27T04:53:03.869Z,7.22
2023-04-27T04:55:30.710Z,6.70
2023-04-27T04:57:57.380Z,13.38
2023-04-27T05:00:24.357Z,5.75
2023-04-27T05:02:51.299Z,6.75
2023-04-27T05:05:18.136Z,7.57
2023-04-27T05:07:45.041Z,7.60
2023-04-27T05:10:11.916Z,8.43
2023-04-27T05:12:38.822Z,8.18
2023-04-27T05:15:06.072Z,5.45
2023-04-27T05:17:32.814Z,4.97
2023-04-27T05:19:59.592Z,8.57
2023-04-27T05:22:26.384Z,5.07
2023-04-27T05:24:53.062Z,7.80
2023-04-27T05:27:19.696Z,5.78
2023-04-27T05:29:46.399Z,6.72
2023-04-27T05:32:13.106Z,6.15
2023-04-27T05:34:39.852Z,6.00
2023-04-27T05:37:06.703Z,7.25
2023-04-27T05:39:33.484Z,10.00
2023-04-27T05:42:00.142Z,7.45
2023-04-27T05:44:29.511Z,12.23
2023-04-27T05:46:56.484Z,8.73
2023-04-27T05:49:23.591Z,6.95
2023-04-27T05:51:50.369Z,7.45
2023-04-27T05:54:17.002Z,9.38
2023-04-27T05:56:43.682Z,9.45
2023-04-27T05:59:10.410Z,5.10
2023-04-27T06:01:37.120Z,11.70
2023-04-27T06:04:04.299Z,9.75
2023-04-27T06:06:33.115Z,6.68
2023-04-27T06:09:00.031Z,7.18
2023-04-27T06:11:26.957Z,8.65
2023-04-27T06:13:53.800Z,11.27
2023-04-27T06:16:21.356Z,12.77
2023-04-27T06:18:50.044Z,10.57
2023-04-27T06:21:17.904Z,10.73
2023-04-27T06:23:44.784Z,8.93
2023-04-27T06:26:11.693Z,8.32
2023-04-27T06:28:38.524Z,11.15
2023-04-27T06:31:06.383Z,9.98
2023-04-27T06:33:33.641Z,8.27
2023-04-27T06:36:01.459Z,8.38
2023-04-27T06:38:28.529Z,9.13
2023-04-27T06:40:55.218Z,8.38
2023-04-27T06:43:22.398Z,8.23
2023-04-27T06:45:49.108Z,8.73
2023-04-27T06:48:15.996Z,10.50
2023-04-27T06:50:43.412Z,7.38
2023-04-27T06:53:10.657Z,8.07
2023-04-27T06:55:37.307Z,8.73
2023-04-27T06:58:04.556Z,7.93
2023-04-27T07:00:32.029Z,9.25
2023-04-27T07:02:59.003Z,13.43
2023-04-27T07:05:26.478Z,10.25
2023-04-27T07:07:53.321Z,12.07
2023-04-27T07:10:20.287Z,8.63
2023-04-27T07:12:49.129Z,10.93
2023-04-27T07:15:15.948Z,9.80
2023-04-27T07:17:42.711Z,11.38
2023-04-27T07:20:09.612Z,9.90
2023-04-27T07:22:36.516Z,11.07
2023-04-27T07:25:04.055Z,8.90
2023-04-27T07:27:32.036Z,11.18
2023-04-27T07:29:59.232Z,8.45
2023-04-27T07:32:26.347Z,8.40
2023-04-27T07:34:55.635Z,8.50
2023-04-27T07:37:22.970Z,9.95
2023-04-27T07:39:52.140Z,9.95
2023-04-27T07:42:20.047Z,10.82
2023-04-27T07:44:47.477Z,12.65
2023-04-27T07:47:14.524Z,10.23
2023-04-27T07:49:41.271Z,10.35
2023-04-27T07:52:08.418Z,9.98
2023-04-27T07:54:35.367Z,8.10
2023-04-27T07:57:02.425Z,11.05
2023-04-27T07:59:30.316Z,9.77
2023-04-27T08:02:07.018Z,9.30
2023-04-27T08:04:44.302Z,13.57
2023-04-27T08:07:11.754Z,10.18
2023-04-27T08:09:38.674Z,10.73
2023-04-27T08:12:06.208Z,11.02
2023-04-27T08:14:35.449Z,10.90
2023-04-27T08:17:02.642Z,10.32
2023-04-27T08:19:29.454Z,10.07
2023-04-27T08:21:56.227Z,12.13
2023-04-27T08:24:22.890Z,7.30
2023-04-27T08:26:49.623Z,9.70
2023-04-27T08:29:26.959Z,9.93
2023-04-27T08:31:56.914Z,16.83
2023-04-27T08:34:24.114Z,10.25
2023-04-27T08:36:51.091Z,13.60
2023-04-27T08:39:18.494Z,14.02
2023-04-27T08:41:45.562Z,9.55
2023-04-27T08:44:12.344Z,9.25
2023-04-27T08:46:39.911Z,12.13
2023-04-27T08:49:10.104Z,11.38
2023-04-27T08:51:36.910Z,11.20
2023-04-27T08:54:03.793Z,14.77
2023-04-27T08:56:31.160Z,13.20
2023-04-27T08:58:59.136Z,17.50
2023-04-27T09:01:29.118Z,13.27
2023-04-27T09:03:58.201Z,15.65
2023-04-27T09:06:32.792Z,12.98
2023-04-27T09:09:00.117Z,12.65
2023-04-27T09:11:31.891Z,9.02
2023-04-27T09:14:00.326Z,10.15
2023-04-27T09:16:29.342Z,11.00
2023-04-27T09:18:57.469Z,11.82
2023-04-27T09:21:29.676Z,13.68
2023-04-27T09:23:56.821Z,10.32
2023-04-27T09:26:26.978Z,11.65
2023-04-27T09:28:58.616Z,9.95
2023-04-27T09:31:37.097Z,16.27
2023-04-27T09:34:04.307Z,10.27
2023-04-27T09:36:33.202Z,12.38
2023-04-27T09:39:04.808Z,12.10
2023-04-27T09:41:32.873Z,11.85
2023-04-27T09:44:01.690Z,12.32
2023-04-27T09:46:29.622Z,14.02
2023-04-27T09:48:56.796Z,13.23
2023-04-27T09:51:23.480Z,13.43
2023-04-27T09:53:54.167Z,14.50
2023-04-27T09:56:32.886Z,12.77
2023-04-27T09:59:08.749Z,12.20
2023-04-27T10:01:41.971Z,12.73
2023-04-27T10:04:45.732Z,17.40
2023-04-27T10:07:14.492Z,10.20
2023-04-27T10:09:43.648Z,11.98
2023-04-27T10:12:36.458Z,17.02
2023-04-27T10:15:13.324Z,10.83
2023-04-27T10:17:49.162Z,11.18
2023-04-27T10:20:16.627Z,12.32
2023-04-27T10:22:48.220Z,11.88
2023-04-27T10:25:21.742Z,16.25
2023-04-27T10:27:57.874Z,11.80
2023-04-27T10:30:27.587Z,14.90
2023-04-27T10:32:56.841Z,13.77
2023-04-27T10:35:45.968Z,13.95
2023-04-27T10:38:17.706Z,11.95
2023-04-27T10:40:46.679Z,16.63
2023-04-27T10:43:16.264Z,16.55
2023-04-27T10:45:43.908Z,15.68
2023-04-27T10:48:16.954Z,16.50
2023-04-27T10:50:47.006Z,16.92
2023-04-27T10:53:17.557Z,14.98
2023-04-27T10:55:44.242Z,16.10
2023-04-27T10:58:11.035Z,15.75
2023-04-27T11:00:44.661Z,12.27
2023-04-27T11:03:24.169Z,14.25
2023-04-27T11:06:03.065Z,15.30
2023-04-27T11:08:30.879Z,13.02
2023-04-27T11:10:57.795Z,12.50
2023-04-27T11:13:26.511Z,13.15
2023-04-27T11:15:58.155Z,16.60
2023-04-27T11:18:29.309Z,14.18
2023-04-27T11:21:07.736Z,10.80
2023-04-27T11:23:38.615Z,16.38
2023-04-27T11:26:17.020Z,14.20
2023-04-27T11:28:59.893Z,12.25
2023-04-27T11:31:27.596Z,11.63
2023-04-27T11:33:55.974Z,14.55
2023-04-27T11:36:24.523Z,11.63
2023-04-27T11:38:51.190Z,15.93
2023-04-27T11:41:17.994Z,12.50
2023-04-27T11:43:51.384Z,16.27
2023-04-27T11:46:22.395Z,14.10
2023-04-27T11:48:49.431Z,17.70
2023-04-27T11:51:16.212Z,13.20
2023-04-27T11:53:48.244Z,17.90
2023-04-27T11:56:14.889Z,14.15
2023-04-27T11:58:42.580Z,12.85
2023-04-27T12:01:12.039Z,17.80
2023-04-27T12:03:39.151Z,14.85
2023-04-27T12:06:27.780Z,17.95
2023-04-27T12:08:53.414Z,18.70
2023-04-27T12:11:20.916Z,12.32
2023-04-27T12:13:48.292Z,15.38
2023-04-27T12:16:15.018Z,18.08
2023-04-27T12:18:41.817Z,13.30
2023-04-27T12:21:08.755Z,18.55
2023-04-27T12:23:35.687Z,18.70
2023-04-27T12:26:03.108Z,10.52
2023-04-27T12:28:29.957Z,18.92
2023-04-27T12:30:56.919Z,17.55
2023-04-27T12:33:23.729Z,16.08
2023-04-27T12:35:50.620Z,9.85
2023-04-27T12:38:17.302Z,14.63
2023-04-27T12:40:44.017Z,17.73
2023-04-27T12:43:11.097Z,13.80
2023-04-27T12:45:37.756Z,11.15
2023-04-27T12:48:04.724Z,17.40
2023-04-27T12:50:34.398Z,16.60
2023-04-27T12:53:01.355Z,21.83
2023-04-27T12:57:58.380Z,74.65
2023-04-27T13:00:25.601Z,64.85
2023-04-27T13:02:53.103Z,22.30
2023-04-27T13:05:21.087Z,136.32
2023-04-27T13:07:48.020Z,21.95
2023-04-27T13:10:14.872Z,16.80
2023-04-27T13:12:41.675Z,18.17
2023-04-27T13:15:09.299Z,17.40
2023-04-27T13:17:36.186Z,16.30
2023-04-27T13:20:03.299Z,12.95
2023-04-27T13:22:30.041Z,20.48
2023-04-27T13:24:56.811Z,18.52
2023-04-27T13:27:25.341Z,15.95
2023-04-27T13:29:52.226Z,21.10
2023-04-27T13:32:18.941Z,14.45
2023-04-27T13:34:45.816Z,16.75
2023-04-27T13:37:12.555Z,18.65
2023-04-27T13:39:39.259Z,12.98
2023-04-27T13:42:06.630Z,13.30
2023-04-27T13:44:33.751Z,22.50
2023-04-27T13:47:00.581Z,17.10
2023-04-27T13:49:27.313Z,28.70
2023-04-27T13:51:53.994Z,22.10
2023-04-27T13:54:21.656Z,21.65
2023-04-27T13:56:48.538Z,23.55
2023-04-27T13:59:16.751Z,17.92
2023-04-27T14:01:43.705Z,17.92
2023-04-27T14:04:10.852Z,18.23
2023-04-27T14:06:37.787Z,21.38
2023-04-27T14:09:04.662Z,14.95
2023-04-27T14:11:35.348Z,22.83
2023-04-27T14:14:06.822Z,18.45
2023-04-27T14:16:33.588Z,22.20
2023-04-27T14:19:00.338Z,16.88
2023-04-27T14:21:28.178Z,20.30
2023-04-27T14:23:54.916Z,17.45
2023-04-27T14:26:22.062Z,20.13
2023-04-27T14:28:48.800Z,16.33
2023-04-27T14:31:16.116Z,18.50
2023-04-27T14:33:42.811Z,26.65
2023-04-27T14:36:09.800Z,26.42
2023-04-27T14:38:36.482Z,24.88
2023-04-27T14:41:03.218Z,22.90
2023-04-27T14:43:29.921Z,26.13
2023-04-27T14:46:08.149Z,20.35
2023-04-27T14:48:43.666Z,23.23
2023-04-27T14:51:11.177Z,23.55
2023-04-27T14:53:37.981Z,24.65
2023-04-27T14:56:05.268Z,18.25
2023-04-27T14:58:34.981Z,21.15
2023-04-27T15:01:02.061Z,17.17
2023-04-27T15:03:28.949Z,22.23
2023-04-27T15:05:56.005Z,21.00
2023-04-27T15:08:22.814Z,23.42
2023-04-27T15:10:49.733Z,31.40
2023-04-27T15:13:16.926Z,33.92
2023-04-27T15:15:46.783Z,30.08
2023-04-27T15:18:13.562Z,30.45
2023-04-27T15:20:40.345Z,30.85
2023-04-27T15:23:07.014Z,31.00
2023-04-27T15:25:33.828Z,25.20
2023-04-27T15:28:03.226Z,32.75
2023-04-27T15:30:30.101Z,26.48
2023-04-27T15:32:57.009Z,27.48
2023-04-27T15:35:23.969Z,31.45
2023-04-27T15:37:52.249Z,28.02
2023-04-27T15:40:19.158Z,27.13
2023-04-27T15:42:46.093Z,39.00
2023-04-27T15:45:12.862Z,24.90
2023-04-27T15:47:39.672Z,48.47
2023-04-27T15:50:06.826Z,30.45
2023-04-27T15:52:33.997Z,35.67
2023-04-27T15:55:06.787Z,35.42
2023-04-27T15:57:33.581Z,39.35
2023-04-27T16:00:00.588Z,38.35
2023-04-27T16:02:27.582Z,28.50
2023-04-27T16:04:56.395Z,33.67
2023-04-27T16:07:23.167Z,40.13
2023-04-27T16:09:50.032Z,33.97
2023-04-27T16:12:17.032Z,30.17
2023-04-27T16:14:43.749Z,35.72
2023-04-27T16:17:10.876Z,38.92
2023-04-27T16:19:37.534Z,36.90
2023-04-27T16:22:04.380Z,36.83
2023-04-27T16:24:31.505Z,37.47
2023-04-27T16:26:58.373Z,45.63
2023-04-27T16:31:53.265Z,34.13
2023-04-27T16:34:20.075Z,39.00
2023-04-27T16:36:48.566Z,45.70
2023-04-27T16:39:16.192Z,39.65
2023-04-27T16:41:43.346Z,34.45
2023-04-27T16:44:11.655Z,37.75
2023-04-27T16:46:38.396Z,37.55
2023-04-27T16:49:05.232Z,35.03
2023-04-27T16:51:32.270Z,35.63
2023-04-27T16:53:59.520Z,36.20
2023-04-27T16:56:31.592Z,44.40
2023-04-27T16:58:59.010Z,69.15
2023-04-27T17:01:29.011Z,37.38
2023-04-27T17:04:01.186Z,48.63
2023-04-27T17:06:28.659Z,48.63
2023-04-27T17:08:56.431Z,96.63
2023-04-27T17:11:23.248Z,49.53
2023-04-27T17:13:50.573Z,45.00
2023-04-27T17:16:18.153Z,37.15
2023-04-27T17:18:46.574Z,33.88
2023-04-27T17:21:13.440Z,45.47
2023-04-27T17:23:41.572Z,43.70
2023-04-27T17:26:08.623Z,31.50
2023-04-27T17:28:35.324Z,33.15
2023-04-27T17:31:02.181Z,35.42
2023-04-27T17:33:28.862Z,35.08
2023-04-27T17:35:55.718Z,35.80
2023-04-27T17:38:22.385Z,36.90
2023-04-27T17:40:49.094Z,38.40
2023-04-27T17:43:15.803Z,35.35
2023-04-27T17:45:42.893Z,38.53
2023-04-27T17:48:09.672Z,34.45
2023-04-27T17:50:38.273Z,30.92
2023-04-27T17:53:04.970Z,38.67
2023-04-27T17:55:31.748Z,31.38
2023-04-27T17:57:58.445Z,26.80
2023-04-27T18:00:25.200Z,26.85
2023-04-27T18:02:52.043Z,28.38
2023-04-27T18:05:18.918Z,31.90
2023-04-27T18:07:46.806Z,26.35
2023-04-27T18:10:13.845Z,20.48
2023-04-27T18:12:40.509Z,22.35
2023-04-27T18:15:09.663Z,31.27
2023-04-27T18:17:36.891Z,31.83
2023-04-27T18:20:09.551Z,32.28
2023-04-27T18:22:39.485Z,22.65
2023-04-27T18:25:06.840Z,26.95
2023-04-27T18:27:33.527Z,30.95
2023-04-27T18:30:00.220Z,28.80
2023-04-27T18:32:26.893Z,23.55
2023-04-27T18:34:54.046Z,25.85
2023-04-27T18:37:20.944Z,26.60
2023-04-27T18:39:47.672Z,22.83
2023-04-27T18:42:14.459Z,28.23
2023-04-27T18:44:41.789Z,27.95
2023-04-27T18:47:08.470Z,21.92
2023-04-27T18:49:35.157Z,26.48
2023-04-27T18:52:01.936Z,41.35
2023-04-27T18:54:28.727Z,23.75
2023-04-27T18:56:55.966Z,29.92
2023-04-27T18:59:22.686Z,25.20
2023-04-27T19:01:49.407Z,29.27
2023-04-27T19:04:16.698Z,28.92
2023-04-27T19:06:43.618Z,20.70
2023-04-27T19:09:10.317Z,24.73
2023-04-27T19:11:37.012Z,21.02
2023-04-27T19:14:03.725Z,33.78
2023-04-27T19:16:30.526Z,34.53
2023-04-27T19:18:57.312Z,24.00
2023-04-27T19:21:24.149Z,24.42
2023-04-27T19:23:51.263Z,27.10
2023-04-27T19:26:17.966Z,24.48
2023-04-27T19:28:44.755Z,19.50
2023-04-27T19:31:11.583Z,24.10
2023-04-27T19:33:38.414Z,33.85
2023-04-27T19:36:05.329Z,27.33
2023-04-27T19:38:32.185Z,23.55
2023-04-27T19:40:58.886Z,31.20
2023-04-27T19:43:25.605Z,19.85
2023-04-27T19:45:52.320Z,26.58
2023-04-27T19:48:18.965Z,30.80
2023-04-27T19:50:45.830Z,25.10
2023-04-27T19:53:12.501Z,19.75
2023-04-27T19:55:40.494Z,19.13
2023-04-27T19:58:07.307Z,24.58
2023-04-27T20:00:34.307Z,28.75
2023-04-27T20:03:01.317Z,22.75
2023-04-27T20:05:28.493Z,19.52
2023-04-27T20:07:55.521Z,24.60
2023-04-27T20:10:22.355Z,23.52
2023-04-27T20:12:56.592Z,23.10
2023-04-27T20:15:24.451Z,22.83
2023-04-27T20:17:51.906Z,25.58
2023-04-27T20:20:19.370Z,21.02
2023-04-27T20:22:46.126Z,24.63
2023-04-27T20:25:14.741Z,26.83
2023-04-27T20:27:41.935Z,39.47
2023-04-27T20:30:09.369Z,27.77
2023-04-27T20:32:36.484Z,21.42
2023-04-27T20:35:04.923Z,30.38
2023-04-27T20:37:32.784Z,26.70
2023-04-27T20:39:59.555Z,24.85
2023-04-27T20:42:26.349Z,24.75
2023-04-27T20:44:54.899Z,31.15
2023-04-27T20:47:22.021Z,40.65
2023-04-27T20:49:48.980Z,23.92
2023-04-27T20:52:15.812Z,20.92
2023-04-27T20:54:42.535Z,26.17
2023-04-27T20:57:13.544Z,19.25
2023-04-27T20:59:41.150Z,18.83
2023-04-27T21:02:08.411Z,24.75
2023-04-27T21:04:35.275Z,26.55
2023-04-27T21:07:02.073Z,30.27
2023-04-27T21:09:28.789Z,30.98
2023-04-27T21:11:55.530Z,31.40
2023-04-27T21:14:22.170Z,31.90
2023-04-27T21:16:49.024Z,32.95
2023-04-27T21:19:16.736Z,37.17
2023-04-27T21:21:43.378Z,35.00
2023-04-27T21:24:10.428Z,29.58
2023-04-27T21:26:37.330Z,27.25
2023-04-27T21:29:05.987Z,24.80
2023-04-27T21:31:33.783Z,25.50
2023-04-27T21:34:00.889Z,28.88
2023-04-27T21:36:27.821Z,32.53
2023-04-27T21:38:54.672Z,36.10
2023-04-27T21:41:21.576Z,32.08
2023-04-27T21:43:48.292Z,25.33
2023-04-27T21:46:14.995Z,29.70
2023-04-27T21:48:41.661Z,25.05
2023-04-27T21:51:08.412Z,35.17
2023-04-27T21:53:35.093Z,26.38
2023-04-27T21:56:01.781Z,25.50
2023-04-27T21:58:28.670Z,27.20
2023-04-27T22:00:55.371Z,26.55
2023-04-27T22:03:22.758Z,36.22
2023-04-27T22:05:50.347Z,27.20
2023-04-27T22:08:17.517Z,33.88
2023-04-27T22:10:44.884Z,23.88
2023-04-27T22:13:18.819Z,25.60
2023-04-27T22:15:47.115Z,22.63
2023-04-27T22:18:15.044Z,25.92
2023-04-27T22:20:42.461Z,34.70
2023-04-27T22:23:09.678Z,28.52
2023-04-27T22:25:36.464Z,31.83
2023-04-27T22:28:03.137Z,26.42
2023-04-27T22:30:30.473Z,31.30
2023-04-27T22:32:57.707Z,31.92
2023-04-27T22:35:26.952Z,31.08
2023-04-27T22:37:58.063Z,26.20
2023-04-27T22:40:24.954Z,25.85
2023-04-27T22:42:52.071Z,39.58
2023-04-27T22:45:18.793Z,30.20
2023-04-27T22:47:46.130Z,31.27
2023-04-27T22:50:13.396Z,40.08
2023-04-27T22:52:42.417Z,30.60
2023-04-27T22:55:10.309Z,30.92
2023-04-27T22:57:38.212Z,31.38
2023-04-27T23:00:05.709Z,29.23
2023-04-27T23:02:32.591Z,30.42
2023-04-27T23:04:59.376Z,43.97
2023-04-27T23:07:26.064Z,27.38
2023-04-27T23:09:53.078Z,31.65
2023-04-27T23:12:20.820Z,27.38
2023-04-27T23:14:47.559Z,35.08
2023-04-27T23:17:17.167Z,32.83
2023-04-27T23:19:43.847Z,38.33
2023-04-27T23:22:10.586Z,29.38
2023-04-27T23:24:37.236Z,37.88
2023-04-27T23:27:04.090Z,25.13
2023-04-27T23:29:31.387Z,32.60
2023-04-27T23:32:04.711Z,22.23
2023-04-27T23:34:34.247Z,32.10
2023-04-27T23:37:01.058Z,26.98
2023-04-27T23:39:28.264Z,23.40
2023-04-27T23:41:54.964Z,25.45
2023-04-27T23:44:21.607Z,28.38
2023-04-27T23:46:48.291Z,33.00
2023-04-27T23:49:15.590Z,31.15
2023-04-27T23:51:42.244Z,25.35
2023-04-27T23:54:08.950Z,27.15
2023-04-27T23:56:35.649Z,29.25
2023-04-27T23:59:02.357Z,23.55
